This is the latest recevied weather packets stored in our database for station/object WX5KDM. If no packets are shown the sender has not sent any weather packets the latest 10 day(s).
| Time | Temp. | Humidity | Pressure | Rain* | Wind** | Luminosity | Snow |
|---|---|---|---|---|---|---|---|
| 1788113118 | 32.78° C | 57% | 1019.4 hPa | 0 mm | - | - | - |
| 1788112817 | 33.33° C | 61% | 1019.4 hPa | 0 mm | - | - | - |
| 1788112517 | 32.78° C | 61% | 1019.6 hPa | 0 mm | - | - | - |
| 1788112212 | 33.33° C | 61% | 1019.7 hPa | 0 mm | - | - | - |
| 1788111908 | 32.78° C | 63% | 1019.7 hPa | 0 mm | - | - | - |
| 1788111608 | 32.78° C | 62% | 1019.7 hPa | 0 mm | - | - | - |
| 1788111303 | 32.78° C | 62% | 1020 hPa | 0 mm | - | - | - |
| 1788110998 | 33.33° C | 61% | 1019.9 hPa | 0 mm | - | - | - |
| 1788110695 | 32.78° C | 66% | 1019.9 hPa | 0 mm | - | - | - |
| 1788110390 | 33.89° C | 62% | 1020 hPa | 0 mm | - | - | - |
| 1788110086 | 32.78° C | 64% | 1020.2 hPa | 0 mm | - | - | - |
| 1788109785 | 32.78° C | 62% | 1020.2 hPa | 0 mm | - | - | - |
| 1788109480 | 32.22° C | 63% | 1020.1 hPa | 0 mm | - | - | - |
| 1788109179 | 31.67° C | 66% | 1020.1 hPa | 0 mm | - | - | - |
| 1788108875 | 32.22° C | 64% | 1020.2 hPa | 0 mm | - | - | - |
| 1788108571 | 31.67° C | 67% | 1020.3 hPa | 0 mm | - | - | - |
| 1788108267 | 32.22° C | 64% | 1020.5 hPa | 0 mm | - | - | - |
| 1788107968 | 32.22° C | 64% | 1020.4 hPa | 0 mm | - | - | - |
| 1788107658 | 31.67° C | 67% | 1020.4 hPa | 0 mm | - | - | - |
| 1788107358 | 32.22° C | 64% | 1020.4 hPa | 0 mm | - | - | - |
| 1788107054 | 32.78° C | 64% | 1020.5 hPa | 0 mm | - | - | - |
| 1788106749 | 31.67° C | 71% | 1020.4 hPa | 0 mm | - | - | - |
| 1788106448 | 31.67° C | 67% | 1020.3 hPa | 0 mm | - | - | - |
| 1788106143 | 31.67° C | 69% | 1020.5 hPa | 0 mm | - | - | - |
| 1788105839 | 31.11° C | 69% | 1020.5 hPa | 0 mm | - | - | - |
* Rain latest hour (hover to see other rain measurements)
** Current wind speed in m/s (hover to see current wind gust speed)